createdAt,value
2019-02-23T00:01:35.291Z,85.80
2019-02-23T00:04:03.570Z,85.80
2019-02-23T00:06:31.853Z,85.80
2019-02-23T00:09:00.116Z,85.80
2019-02-23T00:11:28.455Z,85.80
2019-02-23T00:13:59.620Z,85.80
2019-02-23T00:16:27.903Z,85.80
2019-02-23T00:18:56.126Z,85.70
2019-02-23T00:21:24.376Z,85.90
2019-02-23T00:23:52.647Z,85.90
2019-02-23T00:26:20.917Z,85.80
2019-02-23T00:28:49.196Z,85.90
2019-02-23T00:31:17.461Z,86.20
2019-02-23T00:33:45.732Z,86.40
2019-02-23T00:36:13.993Z,86.40
2019-02-23T00:38:42.263Z,86.50
2019-02-23T00:41:10.531Z,86.50
2019-02-23T00:43:38.787Z,86.40
2019-02-23T00:46:07.352Z,86.40
2019-02-23T00:48:35.726Z,86.50
2019-02-23T00:51:04.017Z,86.70
2019-02-23T00:53:32.280Z,86.70
2019-02-23T00:56:00.533Z,87.00
2019-02-23T00:58:28.843Z,87.00
2019-02-23T01:00:57.090Z,86.90
2019-02-23T01:03:25.366Z,87.20
2019-02-23T01:05:53.648Z,87.40
2019-02-23T01:08:21.918Z,87.90
2019-02-23T01:10:57.727Z,88.40
2019-02-23T01:13:20.176Z,88.00
2019-02-23T01:15:48.401Z,87.70
2019-02-23T01:18:16.701Z,87.30
2019-02-23T01:20:44.921Z,87.30
2019-02-23T01:23:13.198Z,87.20
2019-02-23T01:25:41.459Z,87.00
2019-02-23T01:28:09.715Z,86.90
2019-02-23T01:30:38.011Z,86.50
2019-02-23T01:33:06.251Z,86.10
2019-02-23T01:35:34.510Z,86.10
2019-02-23T01:38:02.798Z,86.00
2019-02-23T01:40:31.077Z,86.00
2019-02-23T01:42:59.401Z,85.50
2019-02-23T01:45:27.698Z,85.20
2019-02-23T01:47:55.937Z,85.30
2019-02-23T01:50:24.213Z,85.40
2019-02-23T01:52:52.471Z,85.40
2019-02-23T01:55:20.718Z,85.20
2019-02-23T01:58:08.486Z,85.30
2019-02-23T02:00:36.745Z,85.70
2019-02-23T02:03:05.028Z,85.40
2019-02-23T02:05:33.279Z,84.90
2019-02-23T02:08:20.956Z,84.70
2019-02-23T02:10:49.278Z,84.60
2019-02-23T02:13:17.525Z,84.50
2019-02-23T02:15:45.873Z,84.70
2019-02-23T02:18:14.137Z,84.90
2019-02-23T02:20:42.451Z,85.20
2019-02-23T02:23:10.706Z,85.50
2019-02-23T02:25:38.938Z,85.90
2019-02-23T02:28:07.171Z,86.30
2019-02-23T02:30:35.440Z,86.70
2019-02-23T02:33:03.899Z,86.70
2019-02-23T02:35:32.185Z,86.90
2019-02-23T02:38:00.555Z,87.00
2019-02-23T02:40:28.836Z,87.20
2019-02-23T02:42:57.094Z,87.50
2019-02-23T02:45:25.330Z,87.80
2019-02-23T02:47:53.586Z,88.30
2019-02-23T02:50:24.586Z,88.30
2019-02-23T02:52:51.930Z,88.10
2019-02-23T02:55:20.231Z,87.50
2019-02-23T02:57:48.496Z,87.40
2019-02-23T03:00:16.733Z,86.90
2019-02-23T03:02:45.066Z,86.70
2019-02-23T03:05:13.336Z,86.70
2019-02-23T03:07:41.699Z,86.40
2019-02-23T03:10:09.984Z,86.20
2019-02-23T03:12:38.259Z,86.30
2019-02-23T03:15:07.327Z,86.40
2019-02-23T03:17:35.614Z,86.50
2019-02-23T03:20:05.226Z,86.40
2019-02-23T03:22:33.501Z,86.10
2019-02-23T03:25:01.786Z,85.80
2019-02-23T03:27:30.039Z,86.00
2019-02-23T03:29:58.284Z,86.10
2019-02-23T03:32:26.538Z,86.20
2019-02-23T03:34:54.812Z,86.20
2019-02-23T03:37:23.090Z,86.40
2019-02-23T03:39:51.353Z,87.00
2019-02-23T03:42:19.605Z,86.90
2019-02-23T03:44:47.868Z,86.30
2019-02-23T03:47:16.113Z,86.30
2019-02-23T03:49:44.370Z,85.90
2019-02-23T03:52:12.635Z,86.10
2019-02-23T03:54:40.899Z,86.30
2019-02-23T03:57:09.135Z,86.50
2019-02-23T03:59:37.430Z,86.10
2019-02-23T04:02:05.727Z,85.70
2019-02-23T04:04:34.005Z,85.30
2019-02-23T04:07:02.269Z,85.00
2019-02-23T04:09:30.521Z,85.10
2019-02-23T04:11:58.782Z,85.30
2019-02-23T04:14:27.041Z,85.40
2019-02-23T04:16:55.276Z,85.20
2019-02-23T04:19:23.592Z,85.40
2019-02-23T04:21:51.865Z,85.40
2019-02-23T04:24:20.147Z,85.30
2019-02-23T04:26:48.422Z,85.30
2019-02-23T04:29:16.681Z,85.30
2019-02-23T04:31:44.945Z,85.50
2019-02-23T04:34:13.184Z,85.90
2019-02-23T04:36:41.493Z,86.50
2019-02-23T04:39:09.719Z,87.30
2019-02-23T04:41:37.998Z,87.50
2019-02-23T04:44:06.259Z,87.90
2019-02-23T04:46:34.498Z,87.60
2019-02-23T04:49:02.762Z,87.30
2019-02-23T04:51:31.025Z,87.40
2019-02-23T04:53:59.324Z,87.50
2019-02-23T04:56:27.619Z,87.70
2019-02-23T04:58:55.996Z,87.60
2019-02-23T05:01:24.233Z,87.80
2019-02-23T05:03:52.521Z,88.20
2019-02-23T05:06:20.780Z,88.30
2019-02-23T05:09:08.469Z,88.40
2019-02-23T05:11:56.315Z,88.90
2019-02-23T05:14:24.561Z,89.20
2019-02-23T05:16:52.854Z,90.20
2019-02-23T05:19:21.131Z,90.20
2019-02-23T05:21:49.432Z,90.30
2019-02-23T05:24:17.709Z,90.30
2019-02-23T05:26:45.976Z,90.50
2019-02-23T05:29:14.229Z,90.80
2019-02-23T05:31:42.454Z,90.80
2019-02-23T05:34:10.718Z,90.80
2019-02-23T05:36:38.984Z,90.70
2019-02-23T05:39:07.254Z,91.10
2019-02-23T05:41:35.495Z,91.20
2019-02-23T05:44:03.764Z,91.40
2019-02-23T05:46:32.039Z,91.10
2019-02-23T05:49:00.316Z,90.80
2019-02-23T05:51:38.359Z,90.50
2019-02-23T05:53:59.127Z,90.40
2019-02-23T05:56:27.566Z,90.40
2019-02-23T05:58:56.010Z,90.40
2019-02-23T06:01:24.667Z,90.50
2019-02-23T06:03:53.139Z,90.50
2019-02-23T06:06:21.585Z,90.50
2019-02-23T06:08:50.046Z,90.50
2019-02-23T06:11:18.491Z,90.40
2019-02-23T06:13:46.933Z,90.30
2019-02-23T06:16:15.461Z,90.30
2019-02-23T06:18:43.942Z,90.40
2019-02-23T06:21:12.394Z,90.40
2019-02-23T06:23:40.827Z,90.50
2019-02-23T06:26:09.332Z,90.70
2019-02-23T06:28:37.866Z,90.90
2019-02-23T06:31:06.331Z,90.80
2019-02-23T06:33:34.837Z,90.60
2019-02-23T06:36:03.309Z,90.30
2019-02-23T06:38:34.585Z,90.30
2019-02-23T06:41:03.117Z,90.50
2019-02-23T06:43:31.586Z,90.60
2019-02-23T06:46:00.198Z,90.60
2019-02-23T06:48:28.637Z,91.10
2019-02-23T06:50:57.174Z,91.20
2019-02-23T06:53:25.603Z,91.20
2019-02-23T06:55:54.059Z,91.40
2019-02-23T06:58:22.499Z,91.50
2019-02-23T07:00:50.942Z,91.70
2019-02-23T07:03:19.366Z,91.50
2019-02-23T07:05:47.827Z,91.30
2019-02-23T07:08:16.286Z,91.20
2019-02-23T07:10:44.727Z,91.10
2019-02-23T07:13:13.146Z,91.00
2019-02-23T07:15:41.591Z,90.90
2019-02-23T07:18:10.072Z,90.70
2019-02-23T07:20:44.191Z,90.30
2019-02-23T07:23:08.715Z,89.70
2019-02-23T07:25:42.915Z,89.50
2019-02-23T07:28:11.459Z,88.40
2019-02-23T07:30:40.028Z,87.80
2019-02-23T07:33:08.720Z,87.40
2019-02-23T07:35:37.222Z,87.20
2019-02-23T07:38:05.690Z,86.80
2019-02-23T07:40:34.119Z,86.40
2019-02-23T07:43:02.605Z,86.10
2019-02-23T07:45:32.742Z,86.30
2019-02-23T07:48:01.299Z,85.90
2019-02-23T07:50:29.774Z,85.50
2019-02-23T07:52:58.247Z,85.30
2019-02-23T07:55:26.771Z,85.00
2019-02-23T07:57:55.216Z,84.40
2019-02-23T08:00:23.675Z,82.90
2019-02-23T08:02:52.145Z,81.60
2019-02-23T08:05:20.695Z,80.70
2019-02-23T08:07:49.300Z,79.80
2019-02-23T08:10:17.734Z,78.90
2019-02-23T08:12:46.190Z,78.10
2019-02-23T08:15:14.789Z,77.90
2019-02-23T08:17:44.003Z,78.20
2019-02-23T08:20:16.668Z,77.80
2019-02-23T08:22:46.526Z,77.30
2019-02-23T08:25:15.599Z,77.00
2019-02-23T08:27:44.156Z,76.20
2019-02-23T08:30:17.376Z,75.60
2019-02-23T08:32:45.850Z,75.60
2019-02-23T08:35:14.345Z,75.80
2019-02-23T08:37:42.889Z,74.90
2019-02-23T08:40:17.837Z,74.90
2019-02-23T08:42:46.322Z,74.70
2019-02-23T08:45:17.372Z,72.70
2019-02-23T08:47:45.826Z,71.80
2019-02-23T08:50:18.696Z,70.80
2019-02-23T08:52:49.868Z,71.10
2019-02-23T08:55:17.383Z,71.80
2019-02-23T08:57:45.963Z,73.20
2019-02-23T09:00:16.490Z,73.20
2019-02-23T09:02:45.036Z,72.60
2019-02-23T09:05:14.237Z,72.50
2019-02-23T09:07:42.794Z,72.80
2019-02-23T09:10:13.434Z,72.70
2019-02-23T09:12:42.316Z,72.80
2019-02-23T09:15:11.581Z,72.20
2019-02-23T09:17:40.136Z,72.50
2019-02-23T09:20:12.037Z,72.20
2019-02-23T09:22:40.564Z,72.30
2019-02-23T09:25:10.381Z,71.80
2019-02-23T09:27:38.829Z,71.40
2019-02-23T09:30:10.478Z,71.00
2019-02-23T09:32:38.872Z,71.20
2019-02-23T09:35:07.981Z,70.70
2019-02-23T09:37:36.443Z,70.10
2019-02-23T09:40:08.547Z,69.80
2019-02-23T09:42:37.309Z,69.70
2019-02-23T09:45:08.283Z,69.60
2019-02-23T09:47:36.802Z,69.00
2019-02-23T09:50:05.497Z,69.30
2019-02-23T09:52:34.007Z,69.00
2019-02-23T09:55:02.579Z,68.80
2019-02-23T09:57:32.639Z,68.50
2019-02-23T10:00:01.287Z,67.60
2019-02-23T10:02:29.759Z,67.40
2019-02-23T10:04:58.173Z,66.20
2019-02-23T10:07:26.627Z,65.70
2019-02-23T10:09:55.124Z,65.70
2019-02-23T10:12:23.574Z,65.50
2019-02-23T10:14:52.149Z,64.90
2019-02-23T10:17:20.789Z,64.70
2019-02-23T10:19:49.217Z,64.10
2019-02-23T10:22:17.743Z,63.20
2019-02-23T10:24:46.200Z,63.00
2019-02-23T10:27:14.670Z,63.20
2019-02-23T10:29:43.143Z,62.50
2019-02-23T10:32:11.653Z,62.20
2019-02-23T10:34:40.121Z,62.30
2019-02-23T10:37:08.588Z,62.50
2019-02-23T10:39:36.994Z,62.40
2019-02-23T10:42:05.529Z,62.40
2019-02-23T10:44:33.939Z,62.40
2019-02-23T10:47:02.512Z,62.10
2019-02-23T10:49:30.995Z,61.40
2019-02-23T10:51:59.497Z,61.10
2019-02-23T10:54:29.610Z,61.00
2019-02-23T10:56:58.112Z,60.90
2019-02-23T10:59:26.573Z,60.60
2019-02-23T11:01:55.102Z,59.90
2019-02-23T11:04:23.549Z,59.10
2019-02-23T11:06:52.011Z,59.00
2019-02-23T11:09:28.167Z,58.70
2019-02-23T11:11:56.597Z,58.50
2019-02-23T11:14:25.127Z,58.30
2019-02-23T11:16:53.723Z,57.50
2019-02-23T11:19:22.323Z,57.10
2019-02-23T11:21:50.926Z,56.70
2019-02-23T11:24:19.482Z,56.10
2019-02-23T11:26:48.033Z,56.20
2019-02-23T11:29:16.562Z,56.00
2019-02-23T11:31:45.013Z,55.70
2019-02-23T11:34:13.567Z,55.50
2019-02-23T11:36:41.989Z,55.00
2019-02-23T11:39:10.502Z,54.60
2019-02-23T11:41:39.034Z,54.20
2019-02-23T11:44:07.563Z,54.30
2019-02-23T11:46:36.007Z,54.00
2019-02-23T11:49:04.570Z,53.10
2019-02-23T11:51:33.153Z,52.70
2019-02-23T11:54:01.687Z,52.80
2019-02-23T11:56:30.194Z,52.30
2019-02-23T11:58:58.643Z,51.50
2019-02-23T12:01:27.205Z,49.50
2019-02-23T12:03:55.671Z,49.30
2019-02-23T12:06:24.194Z,49.10
2019-02-23T12:08:52.689Z,49.60
2019-02-23T12:11:21.175Z,49.60
2019-02-23T12:13:49.707Z,49.20
2019-02-23T12:16:18.214Z,48.90
2019-02-23T12:18:46.654Z,48.00
2019-02-23T12:21:15.089Z,47.30
2019-02-23T12:23:43.541Z,46.90
2019-02-23T12:26:11.976Z,46.60
2019-02-23T12:28:40.431Z,46.00
2019-02-23T12:31:08.878Z,45.20
2019-02-23T12:33:37.331Z,44.60
2019-02-23T12:36:05.881Z,43.80
2019-02-23T12:38:34.510Z,43.70
2019-02-23T12:41:02.996Z,44.20
2019-02-23T12:43:31.467Z,44.90
2019-02-23T12:45:59.893Z,45.40
2019-02-23T12:48:28.372Z,45.30
2019-02-23T12:50:57.158Z,44.80
2019-02-23T12:53:25.732Z,44.60
2019-02-23T12:55:54.135Z,44.00
2019-02-23T12:58:22.623Z,44.00
2019-02-23T13:00:51.050Z,43.70
2019-02-23T13:03:19.531Z,43.80
2019-02-23T13:05:47.961Z,43.70
2019-02-23T13:08:16.434Z,43.50
2019-02-23T13:10:45.238Z,43.30
2019-02-23T13:13:16.757Z,43.20
2019-02-23T13:16:00.294Z,42.30
2019-02-23T13:18:37.789Z,41.90
2019-02-23T13:21:35.090Z,41.70
2019-02-23T13:24:15.273Z,40.90
2019-02-23T13:26:52.575Z,40.80
2019-02-23T13:29:57.926Z,41.40
2019-02-23T13:32:52.349Z,41.20
2019-02-23T13:35:26.527Z,40.80
2019-02-23T13:38:00.780Z,40.70
2019-02-23T13:40:58.211Z,40.80
2019-02-23T13:43:32.541Z,40.50
2019-02-23T13:46:12.829Z,40.80
2019-02-23T13:48:59.542Z,40.80
2019-02-23T13:51:49.014Z,40.30
2019-02-23T13:54:26.292Z,39.70
2019-02-23T13:56:57.841Z,39.00
2019-02-23T13:59:29.362Z,38.30
2019-02-23T14:02:37.402Z,38.30
2019-02-23T14:05:20.794Z,38.40
2019-02-23T14:08:06.737Z,37.80
2019-02-23T14:11:00.682Z,37.40
2019-02-23T14:13:40.993Z,37.60
2019-02-23T14:16:24.251Z,38.00
2019-02-23T14:19:25.843Z,38.50
2019-02-23T14:22:20.923Z,38.50
2019-02-23T14:25:16.532Z,38.20
2019-02-23T14:27:53.633Z,38.30
2019-02-23T14:30:58.120Z,38.10
2019-02-23T14:33:38.343Z,38.20
2019-02-23T14:36:15.904Z,38.00
2019-02-23T14:39:15.989Z,37.90
2019-02-23T14:41:55.774Z,37.80
2019-02-23T14:44:52.625Z,38.00
2019-02-23T14:47:42.226Z,38.40
2019-02-23T14:50:34.608Z,37.90
2019-02-23T14:53:15.370Z,38.00
2019-02-23T14:55:50.598Z,38.50
2019-02-23T14:58:39.943Z,38.30
2019-02-23T15:01:31.159Z,38.10
2019-02-23T15:04:37.719Z,37.70
2019-02-23T15:07:27.087Z,37.90
2019-02-23T15:10:25.142Z,37.70
2019-02-23T15:13:08.866Z,38.20
2019-02-23T15:16:16.605Z,37.20
2019-02-23T15:18:42.023Z,37.50
2019-02-23T15:21:22.172Z,37.80
2019-02-23T15:24:05.195Z,37.70
2019-02-23T15:26:51.847Z,38.10
2019-02-23T15:29:40.141Z,38.30
2019-02-23T15:32:51.697Z,38.40
2019-02-23T15:35:42.838Z,38.40
2019-02-23T15:38:36.790Z,38.80
2019-02-23T15:41:26.103Z,38.90
2019-02-23T15:44:14.393Z,39.10
2019-02-23T15:47:19.217Z,39.30
2019-02-23T15:49:47.741Z,39.50
2019-02-23T15:52:16.309Z,40.30
2019-02-23T15:54:44.756Z,40.30
2019-02-23T15:57:13.359Z,40.40
2019-02-23T15:59:44.370Z,40.20
2019-02-23T16:02:12.150Z,40.30
2019-02-23T16:04:40.634Z,40.60
2019-02-23T16:07:09.106Z,41.00
2019-02-23T16:09:37.637Z,41.20
2019-02-23T16:12:06.154Z,41.40
2019-02-23T16:14:34.602Z,41.40
2019-02-23T16:17:03.073Z,41.70
2019-02-23T16:19:31.628Z,42.10
2019-02-23T16:22:00.067Z,42.40
2019-02-23T16:24:28.645Z,42.50
2019-02-23T16:26:57.201Z,42.90
2019-02-23T16:29:25.698Z,43.20
2019-02-23T16:31:54.155Z,43.60
2019-02-23T16:34:22.650Z,44.30
2019-02-23T16:36:51.231Z,44.50
2019-02-23T16:39:19.735Z,44.50
2019-02-23T16:41:48.241Z,44.80
2019-02-23T16:44:16.777Z,45.10
2019-02-23T16:46:46.571Z,45.20
2019-02-23T16:49:15.281Z,45.50
2019-02-23T16:51:44.036Z,45.60
2019-02-23T16:54:12.473Z,46.00
2019-02-23T16:56:40.905Z,45.70
2019-02-23T16:59:09.365Z,45.60
2019-02-23T17:01:37.803Z,46.20
2019-02-23T17:04:06.259Z,46.30
2019-02-23T17:06:34.766Z,46.90
2019-02-23T17:09:03.654Z,48.30
2019-02-23T17:11:32.123Z,51.70
2019-02-23T17:14:00.752Z,51.40
2019-02-23T17:16:29.218Z,50.90
2019-02-23T17:18:57.746Z,51.60
2019-02-23T17:21:26.190Z,50.70
2019-02-23T17:23:54.757Z,50.60
2019-02-23T17:26:23.225Z,51.40
2019-02-23T17:28:51.736Z,52.30
2019-02-23T17:31:20.437Z,51.40
2019-02-23T17:33:48.933Z,51.30
2019-02-23T17:36:17.350Z,51.40
2019-02-23T17:38:46.004Z,52.30
2019-02-23T17:41:33.768Z,52.40
2019-02-23T17:44:02.219Z,51.70
2019-02-23T17:46:30.830Z,51.00
2019-02-23T17:48:59.307Z,50.50
2019-02-23T17:51:27.838Z,50.40
2019-02-23T17:53:56.240Z,50.40
2019-02-23T17:56:24.702Z,50.50
2019-02-23T17:58:53.206Z,50.50
2019-02-23T18:01:21.999Z,50.90
2019-02-23T18:03:50.433Z,50.70
2019-02-23T18:06:18.977Z,51.10
2019-02-23T18:08:47.463Z,52.30
2019-02-23T18:11:15.988Z,52.30
2019-02-23T18:13:44.502Z,52.60
2019-02-23T18:16:12.971Z,52.00
2019-02-23T18:18:41.451Z,51.50
2019-02-23T18:21:09.908Z,50.90
2019-02-23T18:23:38.343Z,50.40
2019-02-23T18:26:06.873Z,50.10
2019-02-23T18:28:35.371Z,50.30
2019-02-23T18:31:03.936Z,50.20
2019-02-23T18:33:32.405Z,49.80
2019-02-23T18:36:00.906Z,49.80
2019-02-23T18:38:29.407Z,50.20
2019-02-23T18:40:57.927Z,50.60
2019-02-23T18:43:26.589Z,50.70
2019-02-23T18:45:55.183Z,50.50
2019-02-23T18:48:23.617Z,50.70
2019-02-23T18:50:52.091Z,50.90
2019-02-23T18:53:20.669Z,50.60
2019-02-23T18:55:49.166Z,50.60
2019-02-23T18:58:17.598Z,50.60
2019-02-23T19:00:46.095Z,50.50
2019-02-23T19:03:14.636Z,50.80
2019-02-23T19:05:49.696Z,51.00
2019-02-23T19:08:13.243Z,51.40
2019-02-23T19:10:41.793Z,51.50
2019-02-23T19:13:10.282Z,51.60
2019-02-23T19:15:38.783Z,51.60
2019-02-23T19:18:07.296Z,51.30
2019-02-23T19:20:35.788Z,51.40
2019-02-23T19:23:04.238Z,51.80
2019-02-23T19:25:32.659Z,52.20
2019-02-23T19:28:01.104Z,52.50
2019-02-23T19:30:29.688Z,52.70
2019-02-23T19:32:58.197Z,52.90
2019-02-23T19:35:26.726Z,53.30
2019-02-23T19:37:55.282Z,53.40
2019-02-23T19:40:23.811Z,53.70
2019-02-23T19:42:52.298Z,54.10
2019-02-23T19:45:20.730Z,54.30
2019-02-23T19:47:49.177Z,54.50
2019-02-23T19:50:30.117Z,55.20
2019-02-23T19:52:58.529Z,55.70
2019-02-23T19:55:27.038Z,56.10
2019-02-23T19:57:55.499Z,56.20
2019-02-23T20:00:23.997Z,56.20
2019-02-23T20:02:52.527Z,55.90
2019-02-23T20:05:21.063Z,55.60
2019-02-23T20:07:49.475Z,55.30
2019-02-23T20:10:17.983Z,55.50
2019-02-23T20:12:46.400Z,57.10
2019-02-23T20:15:14.894Z,57.90
2019-02-23T20:17:43.361Z,60.20
2019-02-23T20:20:11.911Z,62.30
2019-02-23T20:22:40.338Z,63.60
2019-02-23T20:25:09.446Z,63.90
2019-02-23T20:27:37.969Z,63.50
2019-02-23T20:30:09.647Z,63.40
2019-02-23T20:32:38.140Z,63.40
2019-02-23T20:35:08.243Z,63.70
2019-02-23T20:37:36.822Z,63.50
2019-02-23T20:40:07.843Z,63.90
2019-02-23T20:42:36.344Z,64.00
2019-02-23T20:45:06.484Z,64.00
2019-02-23T20:47:35.011Z,64.40
2019-02-23T20:50:05.343Z,65.70
2019-02-23T20:52:33.818Z,66.80
2019-02-23T20:55:02.242Z,65.40
2019-02-23T20:57:30.774Z,64.60
2019-02-23T20:59:59.195Z,64.30
2019-02-23T21:02:31.130Z,64.20
2019-02-23T21:04:59.680Z,63.30
2019-02-23T21:07:28.192Z,63.40
2019-02-23T21:09:56.721Z,64.00
2019-02-23T21:12:25.347Z,63.40
2019-02-23T21:14:53.767Z,64.20
2019-02-23T21:17:22.250Z,64.30
2019-02-23T21:19:50.784Z,65.00
2019-02-23T21:22:19.445Z,65.00
2019-02-23T21:24:48.075Z,65.10
2019-02-23T21:27:16.531Z,65.20
2019-02-23T21:29:44.972Z,66.10
2019-02-23T21:32:13.470Z,66.30
2019-02-23T21:34:41.937Z,66.80
2019-02-23T21:37:10.393Z,66.80
2019-02-23T21:39:40.436Z,66.20
2019-02-23T21:42:09.122Z,69.20
2019-02-23T21:44:37.579Z,71.00
2019-02-23T21:47:05.993Z,71.70
2019-02-23T21:49:34.474Z,71.60
2019-02-23T21:52:02.910Z,71.80
2019-02-23T21:54:31.446Z,72.70
2019-02-23T21:56:59.866Z,72.20
2019-02-23T21:59:28.366Z,72.10
2019-02-23T22:01:59.695Z,72.40
2019-02-23T22:04:28.141Z,72.40
2019-02-23T22:06:56.566Z,72.00
2019-02-23T22:09:26.708Z,71.20
2019-02-23T22:11:55.209Z,70.80
2019-02-23T22:14:23.724Z,69.40
2019-02-23T22:16:52.191Z,69.30
2019-02-23T22:19:20.707Z,68.60
2019-02-23T22:21:49.151Z,69.20
2019-02-23T22:24:17.721Z,69.30
2019-02-23T22:26:46.160Z,68.80
2019-02-23T22:29:14.706Z,68.80
2019-02-23T22:31:44.068Z,69.90
2019-02-23T22:34:12.976Z,71.10
2019-02-23T22:36:41.718Z,71.80
2019-02-23T22:39:10.239Z,72.20
2019-02-23T22:41:38.811Z,72.10
2019-02-23T22:44:07.395Z,72.50
2019-02-23T22:46:35.977Z,71.70
2019-02-23T22:49:04.382Z,72.80
2019-02-23T22:51:32.945Z,73.40
2019-02-23T22:54:01.396Z,74.30
2019-02-23T22:56:29.813Z,75.30
2019-02-23T22:58:58.350Z,76.40
2019-02-23T23:01:26.952Z,76.30
2019-02-23T23:03:55.545Z,74.90
2019-02-23T23:06:23.981Z,73.80
2019-02-23T23:08:52.440Z,73.80
2019-02-23T23:11:20.888Z,73.90
2019-02-23T23:13:49.375Z,72.60
2019-02-23T23:16:17.857Z,72.70
2019-02-23T23:18:46.286Z,72.80
2019-02-23T23:21:14.772Z,70.30
2019-02-23T23:23:43.298Z,69.20
2019-02-23T23:26:17.793Z,71.20
2019-02-23T23:28:46.259Z,70.80
2019-02-23T23:31:14.729Z,71.50
2019-02-23T23:33:43.192Z,73.10
2019-02-23T23:36:11.673Z,73.70
2019-02-23T23:38:40.115Z,74.30
2019-02-23T23:41:08.652Z,74.90
2019-02-23T23:43:39.390Z,75.60
2019-02-23T23:46:07.874Z,75.90
2019-02-23T23:48:36.428Z,74.30
2019-02-23T23:51:06.185Z,75.00
2019-02-23T23:53:34.631Z,75.00
2019-02-23T23:56:03.151Z,74.70
2019-02-23T23:58:31.722Z,75.90
